KLLQ

Monticello Municipal/Ellis Field Airport

Monticello, Arkansas, USA
METAR KLLQ 180753Z AUTO 25004KT 3SM BR OVC002 07/06 A3018 RMK AO2 SLP219 T00670061
Observed Flight Rules
Dec-18 @ 07:53 UTC (60 minutes ago) Instrument Flight Rules
Wind Visibility Clouds Conditions
250° at 4 knots 3 miles
  • Overcast at 200' AGL
  • Mist
Temperatures Readings
Current 7°C / 45°F
Dewpoint 6°C / 43°F
Humidity 93%
Altimeter 30.18" Hg
Pressure 1021.9 hPa
Elevation 83
METAR KLLQ 180753Z AUTO 25004KT 3SM BR OVC002 07/06 A3018 RMK AO2 SLP219 T00670061
Observed Flight Rules
Dec-18 @ 07:53 UTC
(60 minutes ago)
LIFR
Wind Visibility
250° at 4 knots 3 miles
Clouds
  • Overcast at 200' AGL
Conditions
  • Mist
Temperature Dewpoint
7°C / 45°F 6°C / 43°F
Humidity Altimeter Pressure
93% 30.18" Hg 1021.9 hPa